createdAt,value
2022-11-28T00:01:43.054Z,5.50
2022-11-28T00:04:11.744Z,5.50
2022-11-28T00:06:41.505Z,5.51
2022-11-28T00:09:09.660Z,5.50
2022-11-28T00:11:37.463Z,5.53
2022-11-28T00:14:06.934Z,5.49
2022-11-28T00:16:38.351Z,5.47
2022-11-28T00:19:07.264Z,5.50
2022-11-28T00:21:38.758Z,5.53
2022-11-28T00:24:08.304Z,5.50
2022-11-28T00:26:38.454Z,5.46
2022-11-28T00:29:09.461Z,5.52
2022-11-28T00:31:42.703Z,5.54
2022-11-28T00:34:12.834Z,5.53
2022-11-28T00:36:41.019Z,5.58
2022-11-28T00:39:08.993Z,5.59
2022-11-28T00:41:37.034Z,5.59
2022-11-28T00:44:05.130Z,5.58
2022-11-28T00:46:37.292Z,5.59
2022-11-28T00:49:05.634Z,5.55
2022-11-28T00:51:35.649Z,5.64
2022-11-28T00:54:05.975Z,5.59
2022-11-28T00:56:37.447Z,5.60
2022-11-28T00:59:07.479Z,5.59
2022-11-28T01:01:39.515Z,5.61
2022-11-28T01:04:10.363Z,5.61
2022-11-28T01:06:40.373Z,5.64
2022-11-28T01:09:10.957Z,5.65
2022-11-28T01:11:39.506Z,5.65
2022-11-28T01:14:08.574Z,5.64
2022-11-28T01:16:40.784Z,5.71
2022-11-28T01:19:09.336Z,5.70
2022-11-28T01:21:37.402Z,5.73
2022-11-28T01:24:05.983Z,5.75
2022-11-28T01:26:34.934Z,5.69
2022-11-28T01:29:08.278Z,5.72
2022-11-28T01:31:38.301Z,5.77
2022-11-28T01:34:06.365Z,5.70
2022-11-28T01:36:34.226Z,5.78
2022-11-28T01:39:02.192Z,5.80
2022-11-28T01:41:30.351Z,5.78
2022-11-28T01:44:01.038Z,5.77
2022-11-28T01:46:29.623Z,5.84
2022-11-28T01:49:03.234Z,5.83
2022-11-28T01:51:31.578Z,5.82
2022-11-28T01:54:00.773Z,5.83
2022-11-28T01:56:32.878Z,5.89
2022-11-28T01:59:05.674Z,5.92
2022-11-28T02:01:33.672Z,5.90
2022-11-28T02:04:05.406Z,5.88
2022-11-28T02:06:34.735Z,5.84
2022-11-28T02:09:02.687Z,5.86
2022-11-28T02:12:09.313Z,5.88
2022-11-28T02:15:02.917Z,5.89
2022-11-28T02:17:46.485Z,5.89
2022-11-28T02:20:44.765Z,5.89
2022-11-28T02:23:18.024Z,5.91
2022-11-28T02:26:11.929Z,5.89
2022-11-28T02:29:04.651Z,5.93
2022-11-28T02:32:01.406Z,5.91
2022-11-28T02:34:36.071Z,5.92
2022-11-28T02:37:10.017Z,5.92
2022-11-28T02:39:46.581Z,5.92
2022-11-28T02:42:21.484Z,5.95
2022-11-28T02:44:56.954Z,5.97
2022-11-28T02:47:33.929Z,5.96
2022-11-28T02:50:09.186Z,6.00
2022-11-28T02:52:41.354Z,6.03
2022-11-28T02:55:10.246Z,5.98
2022-11-28T02:57:38.527Z,6.01
2022-11-28T03:00:25.864Z,6.01
2022-11-28T03:03:15.839Z,6.03
2022-11-28T03:05:49.407Z,5.99
2022-11-28T03:08:33.184Z,6.05
2022-11-28T03:11:09.991Z,6.03
2022-11-28T03:13:42.940Z,6.07
2022-11-28T03:16:27.571Z,6.06
2022-11-28T03:19:03.088Z,6.08
2022-11-28T03:21:39.529Z,6.11
2022-11-28T03:24:13.905Z,6.16
2022-11-28T03:26:50.262Z,6.10
2022-11-28T03:29:25.682Z,6.13
2022-11-28T03:32:13.131Z,6.21
2022-11-28T03:34:48.291Z,6.17
2022-11-28T03:37:30.586Z,6.23
2022-11-28T03:40:11.684Z,6.29
2022-11-28T03:42:43.949Z,6.29
2022-11-28T03:45:25.334Z,6.34
2022-11-28T03:47:59.131Z,6.38
2022-11-28T03:50:36.236Z,6.37
2022-11-28T03:53:12.722Z,6.39
2022-11-28T03:55:56.278Z,6.46
2022-11-28T03:58:31.415Z,6.46
2022-11-28T04:01:15.236Z,6.50
2022-11-28T04:03:52.802Z,6.53
2022-11-28T04:06:27.915Z,6.55
2022-11-28T04:09:02.750Z,6.62
2022-11-28T04:11:38.393Z,6.61
2022-11-28T04:14:14.189Z,6.63
2022-11-28T04:16:53.989Z,6.65
2022-11-28T04:19:28.900Z,6.64
2022-11-28T04:22:03.041Z,6.68
2022-11-28T04:24:35.673Z,6.70
2022-11-28T04:27:07.705Z,6.69
2022-11-28T04:29:41.099Z,6.70
2022-11-28T04:32:10.689Z,6.72
2022-11-28T04:34:43.290Z,6.76
2022-11-28T04:37:15.229Z,6.80
2022-11-28T04:39:47.283Z,6.79
2022-11-28T04:42:18.441Z,6.78
2022-11-28T04:44:51.737Z,6.89
2022-11-28T04:47:21.099Z,6.86
2022-11-28T04:49:49.425Z,6.86
2022-11-28T04:52:25.220Z,6.88
2022-11-28T04:54:58.356Z,6.91
2022-11-28T04:57:32.108Z,6.90
2022-11-28T05:00:02.783Z,6.89
2022-11-28T05:02:32.419Z,6.93
2022-11-28T05:05:00.578Z,6.97
2022-11-28T05:07:29.829Z,6.93
2022-11-28T05:10:00.029Z,6.93
2022-11-28T05:12:30.402Z,6.95
2022-11-28T05:14:58.402Z,6.99
2022-11-28T05:17:26.188Z,7.03
2022-11-28T05:19:57.878Z,6.99
2022-11-28T05:22:36.681Z,6.98
2022-11-28T05:25:08.172Z,6.97
2022-11-28T05:27:36.099Z,6.99
2022-11-28T05:30:05.441Z,7.03
2022-11-28T05:32:33.602Z,7.07
2022-11-28T05:35:01.732Z,7.03
2022-11-28T05:37:29.669Z,7.02
2022-11-28T05:39:57.499Z,6.99
2022-11-28T05:42:30.291Z,7.09
2022-11-28T05:44:58.091Z,7.08
2022-11-28T05:47:26.198Z,7.07
2022-11-28T05:49:54.548Z,7.08
2022-11-28T05:52:23.906Z,7.09
2022-11-28T05:54:52.030Z,7.12
2022-11-28T05:57:23.682Z,7.12
2022-11-28T05:59:54.246Z,7.16
2022-11-28T06:02:22.750Z,7.15
2022-11-28T06:04:50.681Z,7.15
2022-11-28T06:07:23.465Z,7.22
2022-11-28T06:09:51.779Z,7.19
2022-11-28T06:12:19.775Z,7.17
2022-11-28T06:14:49.215Z,7.21
2022-11-28T06:17:20.113Z,7.20
2022-11-28T06:19:48.246Z,7.17
2022-11-28T06:22:16.289Z,7.17
2022-11-28T06:24:44.301Z,7.19
2022-11-28T06:27:18.294Z,7.20
2022-11-28T06:29:53.460Z,7.20
2022-11-28T06:32:24.565Z,7.25
2022-11-28T06:34:53.968Z,7.23
2022-11-28T06:37:21.888Z,7.23
2022-11-28T06:39:52.218Z,7.19
2022-11-28T06:42:20.237Z,7.18
2022-11-28T06:45:01.939Z,7.18
2022-11-28T06:47:31.459Z,7.23
2022-11-28T06:49:59.483Z,7.21
2022-11-28T06:52:29.899Z,7.25
2022-11-28T06:54:58.241Z,7.28
2022-11-28T06:57:26.695Z,7.23
2022-11-28T06:59:54.839Z,7.22
2022-11-28T07:02:27.380Z,7.24
2022-11-28T07:04:57.189Z,7.21
2022-11-28T07:07:26.155Z,7.25
2022-11-28T07:09:54.148Z,7.26
2022-11-28T07:12:23.082Z,7.23
2022-11-28T07:14:50.951Z,7.29
2022-11-28T07:17:19.106Z,7.29
2022-11-28T07:19:51.898Z,7.29
2022-11-28T07:22:25.387Z,7.28
2022-11-28T07:24:55.467Z,7.28
2022-11-28T07:27:23.475Z,7.28
2022-11-28T07:29:51.963Z,7.27
2022-11-28T07:32:19.907Z,7.26
2022-11-28T07:34:50.153Z,7.28
2022-11-28T07:37:18.627Z,7.30
2022-11-28T07:39:48.054Z,7.31
2022-11-28T07:42:16.133Z,7.26
2022-11-28T07:44:45.038Z,7.29
2022-11-28T07:47:12.950Z,7.32
2022-11-28T07:49:42.275Z,7.30
2022-11-28T07:52:13.527Z,7.35
2022-11-28T07:55:05.410Z,7.30
2022-11-28T07:57:51.116Z,7.29
2022-11-28T08:00:36.634Z,7.33
2022-11-28T08:03:05.009Z,7.32
2022-11-28T08:05:33.053Z,7.34
2022-11-28T08:08:11.557Z,7.33
2022-11-28T08:10:40.768Z,7.30
2022-11-28T08:13:08.803Z,7.32
2022-11-28T08:15:37.835Z,7.33
2022-11-28T08:18:06.536Z,7.33
2022-11-28T08:20:34.788Z,7.37
2022-11-28T08:23:09.780Z,7.37
2022-11-28T08:25:40.330Z,7.34
2022-11-28T08:28:19.067Z,7.34
2022-11-28T08:30:47.200Z,7.35
2022-11-28T08:33:15.403Z,7.36
2022-11-28T08:35:44.562Z,7.37
2022-11-28T08:38:14.852Z,7.34
2022-11-28T08:40:45.571Z,7.38
2022-11-28T08:43:14.597Z,7.38
2022-11-28T08:45:42.835Z,7.44
2022-11-28T08:48:11.900Z,7.37
2022-11-28T08:50:48.036Z,7.42
2022-11-28T08:53:18.601Z,7.45
2022-11-28T08:55:52.983Z,7.45
2022-11-28T08:58:24.051Z,7.43
2022-11-28T09:00:54.041Z,7.44
2022-11-28T09:03:26.365Z,7.44
2022-11-28T09:05:55.570Z,7.47
2022-11-28T09:08:26.079Z,7.48
2022-11-28T09:10:55.331Z,7.54
2022-11-28T09:13:24.364Z,7.51
2022-11-28T09:15:53.758Z,7.54
2022-11-28T09:18:21.930Z,7.50
2022-11-28T09:20:51.904Z,7.53
2022-11-28T09:23:19.893Z,7.46
2022-11-28T09:25:47.817Z,7.49
2022-11-28T09:28:17.061Z,7.52
2022-11-28T09:30:45.318Z,7.57
2022-11-28T09:33:13.426Z,7.57
2022-11-28T09:35:41.690Z,7.54
2022-11-28T09:38:13.442Z,7.55
2022-11-28T09:40:45.075Z,7.61
2022-11-28T09:43:21.182Z,7.62
2022-11-28T09:45:53.936Z,7.73
2022-11-28T09:48:31.647Z,7.73
2022-11-28T09:51:09.791Z,7.71
2022-11-28T09:53:43.898Z,7.73
2022-11-28T09:56:17.916Z,7.76
2022-11-28T09:58:58.967Z,7.77
2022-11-28T10:01:34.649Z,7.80
2022-11-28T10:07:11.626Z,7.75
2022-11-28T10:09:50.881Z,7.78
2022-11-28T10:12:33.313Z,7.82
2022-11-28T10:15:22.572Z,7.81
2022-11-28T10:18:01.812Z,7.80
2022-11-28T10:20:33.868Z,7.74
2022-11-28T10:23:13.519Z,7.83
2022-11-28T10:25:45.290Z,7.90
2022-11-28T10:28:17.976Z,7.80
2022-11-28T10:30:58.846Z,7.99
2022-11-28T10:33:31.692Z,7.99
2022-11-28T10:36:04.907Z,7.93
2022-11-28T10:38:39.924Z,7.91
2022-11-28T10:41:21.562Z,8.00
2022-11-28T10:43:56.492Z,7.97
2022-11-28T10:46:53.732Z,7.98
2022-11-28T10:49:33.346Z,8.02
2022-11-28T10:52:11.674Z,8.04
2022-11-28T10:54:54.854Z,7.96
2022-11-28T10:57:28.806Z,8.00
2022-11-28T11:00:04.276Z,8.02
2022-11-28T11:02:41.195Z,7.99
2022-11-28T11:05:17.853Z,8.14
2022-11-28T11:07:50.622Z,8.08
2022-11-28T11:10:28.666Z,8.11
2022-11-28T11:13:00.660Z,8.11
2022-11-28T11:15:33.369Z,8.10
2022-11-28T11:18:24.769Z,8.12
2022-11-28T11:20:55.912Z,8.09
2022-11-28T11:23:32.783Z,8.05
2022-11-28T11:26:06.222Z,8.18
2022-11-28T11:28:43.101Z,8.18
2022-11-28T11:31:27.033Z,8.33
2022-11-28T11:34:05.901Z,8.34
2022-11-28T11:36:36.506Z,8.48
2022-11-28T11:39:31.700Z,8.45
2022-11-28T11:42:12.677Z,8.38
2022-11-28T11:44:40.910Z,8.39
2022-11-28T11:47:13.519Z,8.50
2022-11-28T11:49:48.848Z,8.49
2022-11-28T11:52:21.995Z,8.41
2022-11-28T11:55:04.553Z,8.48
2022-11-28T11:57:38.830Z,8.52
2022-11-28T12:00:14.403Z,8.50
2022-11-28T12:02:50.226Z,8.50
2022-11-28T12:05:52.366Z,8.49
2022-11-28T12:08:27.591Z,8.55
2022-11-28T12:11:21.065Z,8.59
2022-11-28T12:14:05.718Z,8.49
2022-11-28T12:16:48.203Z,8.44
2022-11-28T12:19:37.099Z,8.51
2022-11-28T12:22:14.071Z,8.51
2022-11-28T12:24:57.035Z,8.59
2022-11-28T12:27:35.580Z,8.48
2022-11-28T12:30:37.117Z,8.56
2022-11-28T12:33:34.864Z,8.53
2022-11-28T12:36:12.022Z,8.61
2022-11-28T12:39:08.066Z,8.59
2022-11-28T12:42:01.987Z,8.63
2022-11-28T12:44:49.414Z,8.60
2022-11-28T12:47:30.690Z,8.68
2022-11-28T12:50:05.969Z,8.58
2022-11-28T12:52:44.771Z,8.61
2022-11-28T12:55:29.204Z,8.56
2022-11-28T12:58:07.002Z,8.65
2022-11-28T13:00:40.038Z,8.68
2022-11-28T13:03:15.294Z,8.61
2022-11-28T13:05:54.960Z,8.57
2022-11-28T13:08:55.688Z,8.57
2022-11-28T13:11:44.438Z,8.58
2022-11-28T13:14:24.816Z,8.68
2022-11-28T13:16:55.686Z,8.65
2022-11-28T13:19:34.448Z,8.54
2022-11-28T13:22:12.409Z,8.61
2022-11-28T13:24:48.721Z,8.56
2022-11-28T13:27:27.581Z,8.48
2022-11-28T13:30:10.240Z,8.50
2022-11-28T13:32:45.916Z,8.52
2022-11-28T13:35:15.492Z,8.51
2022-11-28T13:40:47.326Z,8.52
2022-11-28T13:43:24.556Z,8.51
2022-11-28T13:45:53.634Z,8.57
2022-11-28T13:51:41.691Z,8.46
2022-11-28T13:54:37.080Z,8.46
2022-11-28T13:57:11.853Z,8.46
2022-11-28T13:59:48.198Z,8.46
2022-11-28T14:02:24.175Z,8.39
2022-11-28T14:04:52.480Z,8.35
2022-11-28T14:07:30.217Z,8.42
2022-11-28T14:10:15.980Z,8.46
2022-11-28T14:13:05.763Z,8.37
2022-11-28T14:16:02.851Z,8.34
2022-11-28T14:18:58.814Z,8.35
2022-11-28T14:21:40.170Z,8.43
2022-11-28T14:24:18.087Z,8.39
2022-11-28T14:27:00.340Z,8.36
2022-11-28T14:29:37.703Z,8.39
2022-11-28T14:32:30.851Z,8.41
2022-11-28T14:35:00.056Z,8.38
2022-11-28T14:38:05.854Z,8.41
2022-11-28T14:41:12.147Z,8.38
2022-11-28T14:43:41.639Z,8.39
2022-11-28T14:46:25.416Z,8.34
2022-11-28T14:49:27.802Z,8.39
2022-11-28T14:52:44.693Z,8.33
2022-11-28T14:55:26.690Z,8.22
2022-11-28T14:57:58.708Z,8.32
2022-11-28T15:00:29.737Z,8.40
2022-11-28T15:03:16.871Z,8.32
2022-11-28T15:05:53.369Z,8.29
2022-11-28T15:08:41.867Z,8.38
2022-11-28T15:11:22.194Z,8.33
2022-11-28T15:14:03.256Z,8.33
2022-11-28T15:16:33.619Z,8.33
2022-11-28T15:19:08.033Z,8.27
2022-11-28T15:21:46.787Z,8.30
2022-11-28T15:24:25.687Z,8.32
2022-11-28T15:26:57.555Z,8.30
2022-11-28T15:29:27.835Z,8.32
2022-11-28T15:31:58.765Z,8.33
2022-11-28T15:34:29.532Z,8.29
2022-11-28T15:37:02.420Z,8.29
2022-11-28T15:39:37.459Z,8.29
2022-11-28T15:42:09.003Z,8.21
2022-11-28T15:44:39.254Z,8.30
2022-11-28T15:47:22.804Z,8.30
2022-11-28T15:50:00.348Z,8.20
2022-11-28T15:52:30.322Z,8.26
2022-11-28T15:54:58.331Z,8.30
2022-11-28T15:57:29.083Z,8.31
2022-11-28T15:59:57.731Z,8.31
2022-11-28T16:02:30.557Z,8.33
2022-11-28T16:05:07.234Z,8.33
2022-11-28T16:07:42.272Z,8.38
2022-11-28T16:10:25.149Z,8.27
2022-11-28T16:12:59.336Z,8.29
2022-11-28T16:15:35.331Z,8.33
2022-11-28T16:18:03.502Z,8.30
2022-11-28T16:20:38.193Z,8.37
2022-11-28T16:23:29.678Z,8.38
2022-11-28T16:26:31.401Z,8.37
2022-11-28T16:29:15.773Z,8.40
2022-11-28T16:31:54.864Z,8.36
2022-11-28T16:34:46.793Z,8.36
2022-11-28T16:37:30.808Z,8.36
2022-11-28T16:40:23.128Z,8.33
2022-11-28T16:43:36.539Z,8.36
2022-11-28T16:46:08.097Z,8.35
2022-11-28T16:48:39.693Z,8.35
2022-11-28T16:51:36.631Z,8.34
2022-11-28T16:54:33.125Z,8.38
2022-11-28T16:57:14.684Z,8.38
2022-11-28T16:59:44.505Z,8.39
2022-11-28T17:02:18.555Z,8.37
2022-11-28T17:04:48.681Z,8.39
2022-11-28T17:07:19.345Z,8.36
2022-11-28T17:09:49.963Z,8.40
2022-11-28T17:12:25.573Z,8.37
2022-11-28T17:15:00.827Z,8.37
2022-11-28T17:17:36.344Z,8.34
2022-11-28T17:20:04.726Z,8.33
2022-11-28T17:22:40.754Z,8.32
2022-11-28T17:25:16.379Z,8.36
2022-11-28T17:27:46.207Z,8.40
2022-11-28T17:30:15.167Z,8.40
2022-11-28T17:32:43.688Z,8.38
2022-11-28T17:35:17.966Z,8.38
2022-11-28T17:37:45.786Z,8.38
2022-11-28T17:40:31.195Z,8.34
2022-11-28T17:43:01.148Z,8.34
2022-11-28T17:45:31.482Z,8.40
2022-11-28T17:48:01.791Z,8.40
2022-11-28T17:50:32.129Z,8.37
2022-11-28T17:53:09.332Z,8.41
2022-11-28T17:55:40.774Z,8.38
2022-11-28T17:58:24.695Z,8.39
2022-11-28T18:01:01.797Z,8.37
2022-11-28T18:03:30.365Z,8.41
2022-11-28T18:06:02.832Z,8.54
2022-11-28T18:08:34.854Z,8.44
2022-11-28T18:11:08.806Z,8.46
2022-11-28T18:13:41.230Z,8.47
2022-11-28T18:16:10.277Z,8.47
2022-11-28T18:18:43.414Z,8.41
2022-11-28T18:21:12.953Z,8.43
2022-11-28T18:24:00.581Z,8.47
2022-11-28T18:26:30.782Z,8.43
2022-11-28T18:29:02.130Z,8.34
2022-11-28T18:31:35.256Z,8.37
2022-11-28T18:34:10.185Z,8.43
2022-11-28T18:36:40.061Z,8.38
2022-11-28T18:39:12.335Z,8.38
2022-11-28T18:41:51.583Z,8.43
2022-11-28T18:44:28.867Z,8.46
2022-11-28T18:47:23.317Z,8.42
2022-11-28T18:50:13.488Z,8.48
2022-11-28T18:52:48.691Z,8.45
2022-11-28T18:55:28.907Z,8.36
2022-11-28T18:58:08.251Z,8.45
2022-11-28T19:00:40.120Z,8.43
2022-11-28T19:03:25.441Z,8.45
2022-11-28T19:05:56.757Z,8.44
2022-11-28T19:08:25.064Z,8.48
2022-11-28T19:11:46.798Z,8.59
2022-11-28T19:14:37.198Z,8.41
2022-11-28T19:17:44.876Z,8.48
2022-11-28T19:20:16.044Z,8.53
2022-11-28T19:22:44.230Z,8.49
2022-11-28T19:25:14.242Z,8.46
2022-11-28T19:27:43.490Z,8.47
2022-11-28T19:30:13.455Z,8.45
2022-11-28T19:32:42.569Z,8.47
2022-11-28T19:35:12.340Z,8.41
2022-11-28T19:37:43.243Z,8.51
2022-11-28T19:40:13.499Z,8.53
2022-11-28T19:42:41.728Z,8.49
2022-11-28T19:45:11.140Z,8.41
2022-11-28T19:47:39.127Z,8.52
2022-11-28T19:50:09.878Z,8.40
2022-11-28T19:52:41.337Z,8.41
2022-11-28T19:55:32.712Z,8.53
2022-11-28T20:01:16.923Z,8.49
2022-11-28T20:03:47.679Z,8.52
2022-11-28T20:06:17.563Z,8.47
2022-11-28T20:08:50.120Z,8.46
2022-11-28T20:11:23.605Z,8.48
2022-11-28T20:13:57.559Z,8.45
2022-11-28T20:16:26.270Z,8.48
2022-11-28T20:19:03.223Z,8.48
2022-11-28T20:21:32.153Z,8.39
2022-11-28T20:24:04.622Z,8.51
2022-11-28T20:26:36.966Z,8.45
2022-11-28T20:29:05.528Z,8.45
2022-11-28T20:31:41.965Z,8.43
2022-11-28T20:34:10.028Z,8.43
2022-11-28T20:36:38.400Z,8.43
2022-11-28T20:39:07.429Z,8.40
2022-11-28T20:41:36.773Z,8.43
2022-11-28T20:44:04.655Z,8.42
2022-11-28T20:46:35.666Z,8.37
2022-11-28T20:49:06.403Z,8.48
2022-11-28T20:51:36.025Z,8.37
2022-11-28T20:54:10.660Z,8.42
2022-11-28T20:57:20.692Z,8.36
2022-11-28T20:59:43.058Z,8.42
2022-11-28T21:02:29.808Z,8.38
2022-11-28T21:05:02.331Z,8.34
2022-11-28T21:07:34.413Z,8.38
2022-11-28T21:10:08.212Z,8.41
2022-11-28T21:12:46.903Z,8.34
2022-11-28T21:18:10.835Z,8.32
2022-11-28T21:20:43.052Z,8.35
2022-11-28T21:23:11.889Z,8.32
2022-11-28T21:25:41.190Z,8.30
2022-11-28T21:28:12.006Z,8.34
2022-11-28T21:30:43.891Z,8.28
2022-11-28T21:33:13.647Z,8.31
2022-11-28T21:35:41.813Z,8.35
2022-11-28T21:38:09.896Z,8.37
2022-11-28T21:40:37.900Z,8.22
2022-11-28T21:43:05.846Z,8.27
2022-11-28T21:45:39.419Z,8.27
2022-11-28T21:48:07.572Z,8.26
2022-11-28T21:50:35.430Z,8.27
2022-11-28T21:53:03.475Z,8.29
2022-11-28T21:55:31.293Z,8.29
2022-11-28T21:57:59.320Z,8.25
2022-11-28T22:00:52.260Z,8.22
2022-11-28T22:03:21.312Z,8.25
2022-11-28T22:05:49.415Z,8.22
2022-11-28T22:08:17.755Z,8.23
2022-11-28T22:10:45.693Z,8.23
2022-11-28T22:13:13.612Z,8.30
2022-11-28T22:15:43.187Z,8.26
2022-11-28T22:18:11.988Z,8.24
2022-11-28T22:20:43.582Z,8.26
2022-11-28T22:23:12.926Z,8.21
2022-11-28T22:25:42.010Z,8.23
2022-11-28T22:28:11.652Z,8.29
2022-11-28T22:30:39.552Z,8.23
2022-11-28T22:33:08.939Z,8.27
2022-11-28T22:35:38.115Z,8.33
2022-11-28T22:38:07.568Z,8.20
2022-11-28T22:40:35.579Z,8.20
2022-11-28T22:43:03.599Z,8.07
2022-11-28T22:45:31.741Z,8.17
2022-11-28T22:48:00.139Z,8.13
2022-11-28T22:50:28.035Z,8.08
2022-11-28T22:52:57.131Z,8.04
2022-11-28T22:55:29.907Z,8.04
2022-11-28T22:57:57.945Z,7.97
2022-11-28T23:00:26.108Z,8.06
2022-11-28T23:02:54.184Z,8.10
2022-11-28T23:05:22.135Z,8.05
2022-11-28T23:07:50.247Z,8.07
2022-11-28T23:10:19.780Z,8.05
2022-11-28T23:12:49.014Z,8.08
2022-11-28T23:15:17.642Z,8.05
2022-11-28T23:17:45.675Z,8.07
2022-11-28T23:20:14.968Z,8.04
2022-11-28T23:22:45.432Z,7.98
2022-11-28T23:25:15.379Z,8.04
2022-11-28T23:27:43.376Z,7.98
2022-11-28T23:30:13.482Z,7.93
2022-11-28T23:32:41.736Z,7.97
2022-11-28T23:35:10.303Z,7.98
2022-11-28T23:37:45.503Z,7.96
2022-11-28T23:40:13.746Z,7.97
2022-11-28T23:42:41.727Z,7.99
2022-11-28T23:45:12.781Z,8.05
2022-11-28T23:47:40.855Z,7.94
2022-11-28T23:50:10.575Z,7.94
2022-11-28T23:52:38.463Z,7.99
2022-11-28T23:55:11.315Z,7.94
2022-11-28T23:57:39.730Z,7.97
